Time;durP1;ratioP1;P1;durP2;ratioP2;P2;SDS_P1;SDS_P2;PMS_P1;PMS_P2;Temp;Humidity;BMP_temperature;BMP_pressure;BME280_temperature;BME280_humidity;BME280_pressure;Samples;Min_cycle;Max_cycle;Signal;HPM_P1;HPM_P2
2022/07/04 00:01:26;;;;;;;2.92;2.08;;;19.30;99.90;;;;;;5095106;28;20691;-81
2022/07/04 00:03:53;;;;;;;3.55;2.20;;;19.30;99.90;;;;;;5095120;28;20200;-81
2022/07/04 00:06:19;;;;;;;2.63;2.15;;;19.20;99.90;;;;;;5095093;28;20208;-81
2022/07/04 00:08:46;;;;;;;3.25;2.30;;;19.10;99.90;;;;;;5094941;28;20196;-81
2022/07/04 00:11:13;;;;;;;3.42;2.33;;;19.10;99.90;;;;;;5095227;28;20232;-81
2022/07/04 00:13:40;;;;;;;3.10;2.10;;;19.20;99.90;;;;;;5095092;28;20200;-81
2022/07/04 00:16:07;;;;;;;3.47;2.28;;;19.20;99.90;;;;;;5094943;28;20718;-81
2022/07/04 00:18:34;;;;;;;3.13;2.50;;;19.20;99.90;;;;;;5094731;28;20277;-80
2022/07/04 00:21:01;;;;;;;7.00;2.38;;;19.30;99.90;;;;;;5094809;28;20272;-81
2022/07/04 00:23:27;;;;;;;2.95;2.45;;;19.20;99.90;;;;;;5094930;28;20196;-81
2022/07/04 00:25:54;;;;;;;2.60;2.08;;;19.30;99.90;;;;;;5094647;28;20651;-81
2022/07/04 00:28:21;;;;;;;2.97;2.20;;;19.40;99.90;;;;;;5094757;28;20262;-81
2022/07/04 00:30:47;;;;;;;3.50;2.25;;;19.40;99.90;;;;;;5094662;28;20204;-81
2022/07/04 00:33:16;;;;;;;2.53;2.00;;;19.40;99.90;;;;;;5094614;28;20364;-81
2022/07/04 00:35:42;;;;;;;3.40;2.05;;;19.50;99.90;;;;;;5094738;28;20207;-81
2022/07/04 00:38:09;;;;;;;4.05;2.05;;;19.50;99.90;;;;;;5094576;28;20197;-81
2022/07/04 00:40:36;;;;;;;2.33;2.13;;;19.50;99.90;;;;;;5094456;28;20236;-81
2022/07/04 00:43:03;;;;;;;3.28;1.90;;;19.60;99.90;;;;;;5094537;28;20253;-82
2022/07/04 00:45:30;;;;;;;3.15;2.00;;;19.70;99.90;;;;;;5094302;28;20602;-82
2022/07/04 00:47:57;;;;;;;3.50;1.90;;;19.60;99.90;;;;;;5094284;28;20619;-81
2022/07/04 00:50:26;;;;;;;2.35;2.13;;;19.60;99.90;;;;;;5094434;28;20242;-81
2022/07/04 00:52:54;;;;;;;5.07;2.50;;;19.60;99.90;;;;;;5094501;28;20193;-82
2022/07/04 00:55:22;;;;;;;3.42;2.33;;;19.60;99.90;;;;;;5094259;28;20643;-82
2022/07/04 00:57:49;;;;;;;2.33;2.13;;;19.60;99.90;;;;;;5094386;28;20200;-82
2022/07/04 01:00:18;;;;;;;2.58;2.00;;;19.50;99.90;;;;;;5093998;28;20196;-82
2022/07/04 01:02:45;;;;;;;3.03;2.60;;;19.30;99.90;;;;;;5094071;28;20208;-82
2022/07/04 01:05:12;;;;;;;3.15;2.60;;;19.10;99.90;;;;;;5094274;28;20196;-82
2022/07/04 01:07:40;;;;;;;3.15;2.85;;;18.80;99.90;;;;;;5094237;28;20201;-82
2022/07/04 01:10:08;;;;;;;3.72;2.90;;;18.70;99.90;;;;;;5093940;28;20655;-82
2022/07/04 01:12:36;;;;;;;3.58;3.00;;;18.70;99.90;;;;;;5094207;28;20196;-81
2022/07/04 01:15:02;;;;;;;4.35;2.88;;;18.70;99.90;;;;;;5093996;28;20255;-82
2022/07/04 01:17:29;;;;;;;3.78;3.20;;;18.70;99.90;;;;;;5093800;28;20201;-82
2022/07/04 01:19:56;;;;;;;3.65;3.15;;;18.70;99.90;;;;;;5092978;28;20224;-82
2022/07/04 01:22:24;;;;;;;5.15;3.40;;;18.60;99.90;;;;;;5093637;28;20572;-82
2022/07/04 01:24:50;;;;;;;5.70;2.90;;;18.60;99.90;;;;;;5093837;28;20200;-82
2022/07/04 01:27:18;;;;;;;3.30;3.00;;;18.50;99.90;;;;;;5093722;28;20212;-82
2022/07/04 01:29:45;;;;;;;2.92;2.55;;;18.50;99.90;;;;;;5093574;28;20258;-82
2022/07/04 01:32:12;;;;;;;3.50;2.42;;;18.60;99.90;;;;;;5093879;28;20200;-82
2022/07/04 01:34:39;;;;;;;3.58;2.63;;;18.60;99.90;;;;;;5093673;28;20199;-82
2022/07/04 01:37:06;;;;;;;3.78;2.58;;;18.60;99.90;;;;;;5093569;28;20207;-82
2022/07/04 01:39:34;;;;;;;3.42;2.72;;;18.60;99.90;;;;;;5093495;28;20647;-82
2022/07/04 01:42:01;;;;;;;3.10;2.80;;;18.60;99.90;;;;;;5093222;28;20683;-81
2022/07/04 01:44:28;;;;;;;3.65;2.67;;;18.50;99.90;;;;;;5093623;28;20192;-82
2022/07/04 01:46:54;;;;;;;4.15;2.90;;;18.50;99.90;;;;;;5093697;28;20192;-83
2022/07/04 01:49:21;;;;;;;3.13;2.70;;;18.60;99.90;;;;;;5093393;28;20197;-81
2022/07/04 01:51:49;;;;;;;3.33;2.90;;;18.60;99.90;;;;;;5093761;28;20200;-82
2022/07/04 01:54:15;;;;;;;3.08;2.65;;;18.60;99.90;;;;;;5093920;28;20246;-82
2022/07/04 01:56:44;;;;;;;2.72;2.53;;;18.50;99.90;;;;;;5093854;28;20207;-82
2022/07/04 01:59:10;;;;;;;3.42;2.90;;;18.40;99.90;;;;;;5093769;28;20254;-82
2022/07/04 02:01:37;;;;;;;2.85;2.45;;;18.40;99.90;;;;;;5093003;28;20216;-82
2022/07/04 02:04:05;;;;;;;3.58;2.90;;;18.30;99.90;;;;;;5093143;28;20196;-82
2022/07/04 02:06:33;;;;;;;4.55;3.00;;;18.30;99.90;;;;;;5093196;28;20246;-82
2022/07/04 02:09:19;;;;;;;6.60;3.22;;;18.30;99.90;;;;;;5093089;28;20250;-81
2022/07/04 02:14:32;;;;;;;4.10;2.70;;;18.10;99.90;;;;;;5093423;28;20211;-82
2022/07/04 02:16:59;;;;;;;3.05;2.75;;;18.00;99.90;;;;;;5092897;28;20242;-81
2022/07/04 02:19:25;;;;;;;4.72;3.03;;;17.80;99.90;;;;;;5092840;28;20277;-81
2022/07/04 02:21:52;;;;;;;5.38;2.53;;;17.70;99.90;;;;;;5093099;28;20301;-82
2022/07/04 02:24:19;;;;;;;4.15;2.60;;;17.60;99.90;;;;;;5093176;28;20302;-82
2022/07/04 02:26:48;;;;;;;3.03;2.42;;;17.70;99.90;;;;;;5092968;28;20196;-82
2022/07/04 02:29:14;;;;;;;5.85;2.70;;;17.70;99.90;;;;;;5092982;28;20196;-82
2022/07/04 02:31:41;;;;;;;2.92;2.60;;;17.80;99.90;;;;;;5094970;28;20200;-82
2022/07/04 02:34:08;;;;;;;5.53;2.65;;;17.80;99.90;;;;;;5097853;28;20732;-82
2022/07/04 02:36:34;;;;;;;3.20;2.40;;;17.70;99.90;;;;;;5097496;28;20589;-82
2022/07/04 02:39:01;;;;;;;2.88;2.67;;;17.70;99.90;;;;;;5096980;28;20670;-82
2022/07/04 02:41:28;;;;;;;3.40;2.60;;;17.70;99.90;;;;;;5096949;28;20232;-82
2022/07/04 02:43:56;;;;;;;2.53;2.33;;;17.60;99.90;;;;;;5097025;28;20586;-82
2022/07/04 02:46:23;;;;;;;5.50;2.47;;;17.70;99.90;;;;;;5096797;28;20205;-82
2022/07/04 02:48:50;;;;;;;3.63;2.63;;;17.70;99.90;;;;;;5096782;28;20200;-82
2022/07/04 02:51:16;;;;;;;4.80;2.90;;;17.60;99.90;;;;;;5096952;28;20207;-82
2022/07/04 02:53:43;;;;;;;3.17;2.85;;;17.60;99.90;;;;;;5096806;28;20241;-82
2022/07/04 02:56:10;;;;;;;4.97;2.40;;;17.70;99.90;;;;;;5096619;28;20207;-82
2022/07/04 02:58:36;;;;;;;3.78;2.63;;;17.70;99.90;;;;;;5096632;28;20245;-82
2022/07/04 03:01:04;;;;;;;5.25;2.72;;;17.70;99.90;;;;;;5096411;28;20254;-82
2022/07/04 03:03:31;;;;;;;2.85;2.58;;;17.70;99.90;;;;;;5096852;28;20199;-82
2022/07/04 03:05:58;;;;;;;6.15;2.60;;;17.70;99.90;;;;;;5096490;28;20192;-82
2022/07/04 03:08:24;;;;;;;3.35;2.60;;;17.70;99.90;;;;;;5096283;28;20201;-82
2022/07/04 03:10:51;;;;;;;5.72;2.60;;;17.70;99.90;;;;;;5096448;28;20200;-82
2022/07/04 03:13:18;;;;;;;4.38;2.80;;;17.70;99.90;;;;;;5096448;28;20196;-82
2022/07/04 03:15:45;;;;;;;3.13;2.83;;;17.70;99.90;;;;;;5096146;28;20196;-82
2022/07/04 03:18:13;;;;;;;5.50;2.65;;;17.70;99.90;;;;;;5096168;28;20196;-82
2022/07/04 03:20:40;;;;;;;3.67;2.50;;;17.60;99.90;;;;;;5096362;28;20282;-82
2022/07/04 03:23:07;;;;;;;2.83;2.55;;;17.70;99.90;;;;;;5095940;28;20228;-82
2022/07/04 03:25:34;;;;;;;2.80;2.60;;;17.70;99.90;;;;;;5103277;28;20207;-83
2022/07/04 03:28:00;;;;;;;3.35;2.65;;;17.70;99.90;;;;;;5096502;28;20651;-81
2022/07/04 03:30:27;;;;;;;3.40;2.78;;;17.70;99.90;;;;;;5097244;28;20222;-82
2022/07/04 03:32:54;;;;;;;4.25;2.70;;;17.70;99.90;;;;;;5096489;28;20712;-82
2022/07/04 03:35:22;;;;;;;2.95;2.60;;;17.70;99.90;;;;;;5095966;28;20651;-83
2022/07/04 03:37:49;;;;;;;3.85;2.80;;;17.70;99.90;;;;;;5096077;28;20222;-82
2022/07/04 03:40:15;;;;;;;6.68;3.33;;;17.70;99.90;;;;;;5095751;28;20199;-82
2022/07/04 03:42:42;;;;;;;4.43;2.60;;;17.70;99.90;;;;;;5095037;28;20277;-82
2022/07/04 03:45:10;;;;;;;5.72;2.90;;;17.70;99.90;;;;;;5095840;28;20204;-82
2022/07/04 03:47:36;;;;;;;4.07;2.80;;;17.70;99.90;;;;;;5095898;28;20201;-81
2022/07/04 03:50:04;;;;;;;3.67;2.70;;;17.70;99.90;;;;;;5095745;28;20200;-82
2022/07/04 03:52:32;;;;;;;6.28;2.75;;;17.70;99.90;;;;;;5095326;28;20586;-82
2022/07/04 03:54:58;;;;;;;4.63;2.88;;;17.70;99.90;;;;;;5095418;28;20651;-82
2022/07/04 03:57:25;;;;;;;3.78;2.92;;;17.60;99.90;;;;;;5095282;28;20249;-82
2022/07/04 03:59:52;;;;;;;3.55;2.72;;;17.50;99.90;;;;;;5095543;28;20204;-82
2022/07/04 04:02:19;;;;;;;3.17;2.75;;;17.50;99.90;;;;;;5095665;28;20683;-82
2022/07/04 04:07:29;;;;;;;4.68;2.80;;;17.60;99.90;;;;;;5095253;28;20577;-82
2022/07/04 04:09:57;;;;;;;3.00;2.60;;;17.60;99.90;;;;;;5095180;28;20246;-82
2022/07/04 04:12:24;;;;;;;6.00;3.10;;;17.60;99.90;;;;;;5094925;28;20204;-82
2022/07/04 04:14:51;;;;;;;3.03;2.70;;;17.60;99.90;;;;;;5094855;28;20712;-82
2022/07/04 04:17:17;;;;;;;3.45;2.95;;;17.60;99.90;;;;;;5094977;28;20708;-82
2022/07/04 04:19:44;;;;;;;3.00;2.70;;;17.60;99.90;;;;;;5094823;28;20228;-82
2022/07/04 04:22:11;;;;;;;4.28;3.20;;;17.60;99.90;;;;;;5094947;28;20650;-82
2022/07/04 04:24:37;;;;;;;7.28;3.63;;;17.60;99.90;;;;;;5094781;28;20249;-82
2022/07/04 04:27:06;;;;;;;3.30;2.97;;;17.60;99.90;;;;;;5095026;28;20291;-82
2022/07/04 04:29:33;;;;;;;5.32;3.20;;;17.60;99.90;;;;;;5094953;28;20196;-82
2022/07/04 04:31:59;;;;;;;4.82;2.90;;;17.70;99.90;;;;;;5094722;28;20226;-82
2022/07/04 04:34:26;;;;;;;4.15;2.92;;;17.70;99.90;;;;;;5094774;28;20323;-82
2022/07/04 04:36:52;;;;;;;3.95;3.05;;;17.70;99.90;;;;;;5094623;28;20597;-82
2022/07/04 04:39:19;;;;;;;5.38;3.10;;;17.70;99.90;;;;;;5094456;28;20204;-82
2022/07/04 04:41:46;;;;;;;4.85;3.20;;;17.70;99.90;;;;;;5094665;28;20220;-82
2022/07/04 04:44:14;;;;;;;4.38;3.05;;;17.80;99.90;;;;;;5094631;28;20197;-81
2022/07/04 04:46:40;;;;;;;5.47;3.25;;;17.90;99.90;;;;;;5094497;28;20197;-82
2022/07/04 04:49:07;;;;;;;3.40;3.08;;;17.80;99.90;;;;;;5094829;28;20200;-82
2022/07/04 04:51:34;;;;;;;3.38;3.08;;;17.90;99.90;;;;;;5094589;28;20196;-82
2022/07/04 04:54:00;;;;;;;3.70;3.00;;;17.80;99.90;;;;;;5093246;28;20274;-82
2022/07/04 04:56:27;;;;;;;4.95;2.90;;;17.90;99.90;;;;;;5094151;28;20724;-82
2022/07/04 04:58:54;;;;;;;6.88;3.10;;;18.00;99.90;;;;;;5094399;28;20192;-81
2022/07/04 05:01:22;;;;;;;3.08;2.50;;;18.00;99.90;;;;;;5094019;28;20196;-82
2022/07/04 05:03:48;;;;;;;5.40;3.03;;;18.00;99.90;;;;;;5093956;28;20232;-81
2022/07/04 05:06:15;;;;;;;3.30;2.75;;;18.10;99.90;;;;;;5093959;28;20196;-82
2022/07/04 05:08:42;;;;;;;4.35;2.95;;;18.10;99.90;;;;;;5093872;28;20200;-81
2022/07/04 05:11:09;;;;;;;4.47;3.00;;;18.00;99.90;;;;;;5094101;28;20200;-82
2022/07/04 05:13:35;;;;;;;4.03;3.05;;;17.90;99.90;;;;;;5094007;28;20196;-83
2022/07/04 05:16:02;;;;;;;4.65;2.83;;;17.90;99.90;;;;;;5093970;28;20196;-82
2022/07/04 05:18:30;;;;;;;3.50;3.20;;;18.00;99.90;;;;;;5093563;28;20277;-82
2022/07/04 05:20:58;;;;;;;6.00;3.40;;;18.00;99.90;;;;;;5093591;28;20201;-82
2022/07/04 05:23:25;;;;;;;5.97;3.25;;;18.10;99.90;;;;;;5093759;28;20228;-81
2022/07/04 05:25:51;;;;;;;5.80;3.05;;;18.20;99.90;;;;;;5093690;28;20201;-82
2022/07/04 05:28:18;;;;;;;3.83;3.50;;;18.20;99.90;;;;;;5093397;28;20245;-82
2022/07/04 05:30:45;;;;;;;8.07;3.45;;;18.20;99.90;;;;;;5093538;28;20208;-82
2022/07/04 05:33:11;;;;;;;3.90;3.40;;;18.20;99.90;;;;;;5093479;28;20196;-81
2022/07/04 05:35:39;;;;;;;4.90;3.45;;;18.40;99.90;;;;;;5093449;28;20196;-82
2022/07/04 05:38:06;;;;;;;3.40;3.10;;;18.40;99.90;;;;;;5093687;28;20196;-82
2022/07/04 05:40:33;;;;;;;6.82;4.22;;;18.30;99.90;;;;;;5093868;28;20294;-82
2022/07/04 05:42:59;;;;;;;5.47;3.70;;;18.40;99.90;;;;;;5093668;28;20220;-81
2022/07/04 05:45:26;;;;;;;5.13;3.10;;;18.30;99.90;;;;;;5093808;28;20200;-82
2022/07/04 05:47:52;;;;;;;7.88;3.35;;;18.40;99.90;;;;;;5093024;28;20201;-82
2022/07/04 05:50:19;;;;;;;3.60;3.05;;;18.60;99.90;;;;;;5093548;28;20273;-81
2022/07/04 05:52:47;;;;;;;5.32;3.40;;;18.70;99.90;;;;;;5093390;28;20317;-82
2022/07/04 05:55:14;;;;;;;5.53;3.30;;;18.60;99.90;;;;;;5093658;28;20269;-82
2022/07/04 05:57:40;;;;;;;7.30;3.20;;;18.70;99.90;;;;;;5093297;28;20196;-81
2022/07/04 06:00:08;;;;;;;3.75;3.22;;;18.90;99.90;;;;;;5093079;28;20192;-82
2022/07/04 06:02:35;;;;;;;3.47;2.83;;;19.10;99.90;;;;;;5092997;28;20244;-82
2022/07/04 06:05:01;;;;;;;3.85;3.20;;;19.30;99.90;;;;;;5093087;28;20265;-81
2022/07/04 06:07:28;;;;;;;7.00;2.95;;;19.40;99.90;;;;;;5093066;28;20663;-81
2022/07/04 06:09:57;;;;;;;4.07;3.25;;;19.50;99.90;;;;;;5093144;28;20200;-82
2022/07/04 06:12:23;;;;;;;4.95;3.22;;;19.50;99.90;;;;;;5091824;28;20200;-83
2022/07/04 06:14:50;;;;;;;5.82;3.03;;;19.60;99.90;;;;;;5092903;28;20205;-80
2022/07/04 06:17:16;;;;;;;3.25;2.90;;;19.60;99.90;;;;;;5092955;28;20208;-81
2022/07/04 06:19:43;;;;;;;4.80;3.20;;;19.50;99.90;;;;;;5093049;28;20228;-80
2022/07/04 06:22:10;;;;;;;4.45;3.10;;;19.60;99.90;;;;;;5092954;28;20269;-80
2022/07/04 06:24:36;;;;;;;7.45;3.15;;;19.50;99.90;;;;;;5092923;28;20196;-80
2022/07/04 06:27:05;;;;;;;4.40;3.17;;;19.50;99.90;;;;;;5092923;28;20328;-80
2022/07/04 06:29:32;;;;;;;6.55;2.90;;;19.50;99.90;;;;;;5092875;28;20243;-81
2022/07/04 06:31:59;;;;;;;4.65;3.00;;;19.50;99.90;;;;;;5093020;28;20192;-82
2022/07/04 06:37:09;;;;;;;5.90;3.25;;;19.90;99.90;;;;;;5092840;28;20563;-80
2022/07/04 06:39:36;;;;;;;4.15;2.58;;;20.10;99.90;;;;;;5092900;28;20253;-81
2022/07/04 06:42:04;;;;;;;4.35;2.72;;;20.10;99.90;;;;;;5092547;28;20241;-81
2022/07/04 06:44:31;;;;;;;7.15;2.97;;;20.10;99.90;;;;;;5092554;28;20204;-81
2022/07/04 06:46:58;;;;;;;5.68;2.65;;;20.40;99.90;;;;;;5092903;28;20255;-80
2022/07/04 06:49:24;;;;;;;3.78;3.05;;;20.70;99.90;;;;;;5092650;28;20249;-81
2022/07/04 06:51:51;;;;;;;4.22;3.20;;;20.90;99.90;;;;;;5092726;28;20205;-81
2022/07/04 06:54:17;;;;;;;3.05;2.72;;;21.00;99.90;;;;;;5092717;28;20197;-81
2022/07/04 06:56:44;;;;;;;4.03;2.55;;;21.10;99.90;;;;;;5092657;28;20213;-80
2022/07/04 06:59:12;;;;;;;4.68;2.80;;;21.40;99.90;;;;;;5092737;28;20204;-80
2022/07/04 07:01:39;;;;;;;2.60;2.40;;;21.40;99.90;;;;;;5092708;28;20200;-81
2022/07/04 07:04:05;;;;;;;4.40;2.63;;;21.60;99.90;;;;;;5092463;28;20236;-81
2022/07/04 07:06:32;;;;;;;3.50;2.55;;;21.50;99.90;;;;;;5093009;28;20200;-81
2022/07/04 07:08:58;;;;;;;2.90;2.63;;;21.20;99.90;;;;;;5093216;28;20196;-80
2022/07/04 07:11:25;;;;;;;4.22;2.70;;;21.10;99.90;;;;;;5093146;28;20246;-81
2022/07/04 07:13:52;;;;;;;3.33;2.80;;;21.30;99.90;;;;;;5092701;28;20204;-81
2022/07/04 07:16:22;;;;;;;5.32;2.90;;;21.50;99.90;;;;;;5092550;28;20250;-81
2022/07/04 07:18:49;;;;;;;5.07;3.08;;;21.80;99.90;;;;;;5096040;28;20224;-81
2022/07/04 07:21:16;;;;;;;3.00;2.70;;;21.90;99.90;;;;;;5096277;28;20223;-82
2022/07/04 07:23:43;;;;;;;4.18;2.90;;;21.80;99.90;;;;;;5095941;28;20227;-81
2022/07/04 07:26:11;;;;;;;6.03;2.97;;;21.70;99.90;;;;;;5096379;28;20204;-82
2022/07/04 07:28:38;;;;;;;4.68;3.00;;;21.50;99.90;;;;;;5096278;28;20196;-80
2022/07/04 07:31:05;;;;;;;3.95;2.90;;;21.20;99.90;;;;;;5096056;28;20204;-81
2022/07/04 07:33:33;;;;;;;5.53;3.20;;;21.40;99.90;;;;;;5095848;28;20200;-81
2022/07/04 07:35:59;;;;;;;4.50;2.75;;;21.50;99.90;;;;;;5095578;28;20665;-81
2022/07/04 07:38:26;;;;;;;3.05;2.75;;;21.60;99.90;;;;;;5095630;28;20221;-81
2022/07/04 07:40:53;;;;;;;4.97;2.90;;;21.70;99.90;;;;;;5095924;28;20250;-80
2022/07/04 07:43:19;;;;;;;4.60;2.85;;;22.20;99.90;;;;;;5095706;28;20224;-81
2022/07/04 07:45:46;;;;;;;3.95;2.83;;;22.30;99.90;;;;;;5095679;28;20238;-81
2022/07/04 07:48:12;;;;;;;4.22;2.50;;;22.00;99.90;;;;;;5095566;28;20200;-81
2022/07/04 07:50:40;;;;;;;4.07;2.80;;;22.20;99.90;;;;;;5095533;28;20199;-80
2022/07/04 07:53:07;;;;;;;3.67;2.58;;;22.60;99.90;;;;;;5095679;28;20200;-81
2022/07/04 07:55:34;;;;;;;3.65;2.70;;;23.10;99.90;;;;;;5095579;28;20197;-81
2022/07/04 07:58:01;;;;;;;3.30;2.60;;;22.90;99.90;;;;;;5095383;28;20598;-81
2022/07/04 08:00:28;;;;;;;5.93;2.60;;;23.00;99.90;;;;;;5095343;28;20197;-81
2022/07/04 08:05:40;;;;;;;2.80;2.55;;;23.10;99.90;;;;;;5095450;28;20377;-81
2022/07/04 08:08:09;;;;;;;3.17;2.50;;;23.20;99.90;;;;;;5095451;28;20612;-81
2022/07/04 08:10:36;;;;;;;2.92;2.67;;;23.30;99.90;;;;;;5095240;28;20575;-81
2022/07/04 08:13:03;;;;;;;3.65;2.55;;;23.30;99.90;;;;;;5095363;28;20208;-81
2022/07/04 08:15:30;;;;;;;4.18;2.80;;;23.70;99.90;;;;;;5095430;28;20205;-81
2022/07/04 08:17:57;;;;;;;3.00;2.70;;;23.20;99.90;;;;;;5095503;28;20273;-80
2022/07/04 08:20:23;;;;;;;4.28;2.65;;;23.20;99.90;;;;;;5095237;28;20204;-80
2022/07/04 08:22:51;;;;;;;6.18;3.03;;;23.50;99.90;;;;;;5095068;28;20536;-82
2022/07/04 08:25:18;;;;;;;4.28;2.95;;;23.30;99.90;;;;;;5095079;28;20204;-82
2022/07/04 08:27:45;;;;;;;4.88;2.70;;;23.50;99.90;;;;;;5094967;28;20266;-82
2022/07/04 08:30:11;;;;;;;7.13;3.30;;;23.30;99.90;;;;;;5094871;28;20713;-81
2022/07/04 08:32:38;;;;;;;5.72;2.97;;;23.40;99.90;;;;;;5095064;28;20618;-81
2022/07/04 08:35:06;;;;;;;5.15;2.90;;;23.70;99.90;;;;;;5095109;28;20245;-82
2022/07/04 08:37:33;;;;;;;6.00;2.80;;;23.60;99.90;;;;;;5095003;28;20193;-81
2022/07/04 08:40:06;;;;;;;6.10;2.58;;;23.50;99.90;;;;;;5094723;28;20208;-81
2022/07/04 08:42:37;;;;;;;5.97;2.78;;;23.50;99.90;;;;;;5094706;28;20532;-81
2022/07/04 08:45:04;;;;;;;3.25;2.72;;;24.00;99.90;;;;;;5094308;28;20227;-82
2022/07/04 08:47:34;;;;;;;3.78;2.78;;;23.40;99.90;;;;;;5094739;28;20200;-81
2022/07/04 08:50:10;;;;;;;5.15;3.15;;;23.50;99.90;;;;;;5094759;28;20198;-81
2022/07/04 08:52:39;;;;;;;8.45;3.33;;;23.70;99.90;;;;;;5094589;28;20219;-81
2022/07/04 09:00:38;;;;;;;5.57;2.85;;;24.70;99.90;;;;;;5094410;28;20337;-82
2022/07/04 09:03:05;;;;;;;5.75;2.70;;;24.80;99.90;;;;;;5094288;28;20204;-81
2022/07/04 09:05:33;;;;;;;7.72;2.90;;;24.70;99.90;;;;;;5094310;28;20196;-81
2022/07/04 09:08:00;;;;;;;3.22;2.70;;;24.40;99.90;;;;;;5093995;28;20259;-81
2022/07/04 09:10:29;;;;;;;3.15;2.80;;;24.60;99.90;;;;;;5094113;28;20196;-82
2022/07/04 09:12:56;;;;;;;4.63;2.50;;;24.40;99.90;;;;;;5094076;28;20200;-82
2022/07/04 09:15:23;;;;;;;7.03;3.33;;;24.30;99.90;;;;;;5093729;28;20717;-82
2022/07/04 09:17:50;;;;;;;3.15;2.83;;;24.30;99.90;;;;;;5093986;28;20257;-81
2022/07/04 09:20:18;;;;;;;3.25;2.95;;;24.70;99.90;;;;;;5093597;28;20289;-80
2022/07/04 09:22:46;;;;;;;6.20;2.97;;;24.60;99.90;;;;;;5093600;28;20659;-80
2022/07/04 09:25:14;;;;;;;3.38;3.00;;;24.90;99.90;;;;;;5093708;28;20277;-82
2022/07/04 09:27:47;;;;;;;4.57;2.83;;;25.60;98.60;;;;;;5093821;28;20192;-82
2022/07/04 09:30:16;;;;;;;3.97;2.90;;;25.60;98.10;;;;;;5093769;28;20207;-82
2022/07/04 09:32:45;;;;;;;6.53;2.40;;;25.80;97.40;;;;;;5093600;28;20196;-82
2022/07/04 09:35:14;;;;;;;6.75;2.85;;;26.40;95.90;;;;;;5093505;28;20215;-82
2022/07/04 09:37:45;;;;;;;3.00;2.53;;;25.50;96.20;;;;;;5093802;28;20245;-83
2022/07/04 09:40:24;;;;;;;2.85;2.47;;;25.20;96.80;;;;;;5093076;28;20563;-82
2022/07/04 09:42:53;;;;;;;4.85;2.35;;;25.70;97.00;;;;;;5093482;28;20203;-81
2022/07/04 09:45:22;;;;;;;6.03;2.72;;;26.20;95.20;;;;;;5093366;28;20220;-81
2022/07/04 09:47:49;;;;;;;5.05;2.60;;;26.70;93.80;;;;;;5093541;28;20306;-81
2022/07/04 09:50:18;;;;;;;4.55;2.35;;;26.90;92.70;;;;;;5093634;28;20233;-82
2022/07/04 09:52:47;;;;;;;3.72;2.50;;;26.80;91.70;;;;;;5093404;28;20272;-80
2022/07/04 09:55:20;;;;;;;4.90;2.60;;;26.70;90.90;;;;;;5093415;28;20196;-82
2022/07/04 09:57:47;;;;;;;4.30;2.38;;;26.70;90.00;;;;;;5093284;28;20200;-83
2022/07/04 10:00:22;;;;;;;3.55;2.35;;;26.20;85.30;;;;;;5093471;28;20245;-81
2022/07/04 10:02:49;;;;;;;3.58;2.17;;;25.80;86.80;;;;;;5093379;28;20212;-82
2022/07/04 10:05:21;;;;;;;6.25;2.22;;;26.60;84.10;;;;;;5093413;28;20235;-81
2022/07/04 10:07:48;;;;;;;4.32;2.10;;;27.50;82.00;;;;;;5093282;28;20206;-81
2022/07/04 10:10:32;;;;;;;6.93;2.00;;;27.80;80.80;;;;;;5093002;28;20253;-82
2022/07/04 10:13:02;;;;;;;4.45;2.33;;;27.40;71.10;;;;;;5093292;28;20200;-80
2022/07/04 10:15:30;;;;;;;5.05;2.47;;;26.70;71.60;;;;;;5093166;28;20204;-81
2022/07/04 10:17:57;;;;;;;2.35;2.15;;;26.30;73.90;;;;;;5092941;28;20720;-82
2022/07/04 10:20:24;;;;;;;3.63;2.40;;;26.30;71.90;;;;;;5097065;28;20196;-81
2022/07/04 10:22:51;;;;;;;5.45;2.05;;;26.80;69.40;;;;;;5110765;28;20196;-81
2022/07/04 10:25:18;;;;;;;4.80;2.63;;;26.80;70.20;;;;;;5092850;28;20235;-81
2022/07/04 10:27:46;;;;;;;4.82;2.20;;;26.70;72.90;;;;;;5093014;28;20274;-80
2022/07/04 10:30:16;;;;;;;4.78;2.33;;;26.90;72.30;;;;;;5092948;28;20235;-81
2022/07/04 10:32:45;;;;;;;2.88;2.50;;;27.20;72.90;;;;;;5093172;28;20524;-81
2022/07/04 10:35:16;;;;;;;4.28;2.50;;;27.00;71.70;;;;;;5092781;28;20211;-81
2022/07/04 10:38:03;;;;;;;5.68;2.40;;;27.30;70.70;;;;;;5092772;28;20533;-81
2022/07/04 10:40:47;;;;;;;2.35;2.15;;;26.80;70.30;;;;;;5092897;28;20249;-81
2022/07/04 10:44:05;;;;;;;6.43;2.00;;;27.90;70.00;;;;;;5092789;28;20200;-81
2022/07/04 10:46:34;;;;;;;6.32;2.08;;;28.40;65.80;;;;;;5092651;28;20261;-81
2022/07/04 10:49:04;;;;;;;3.85;1.83;;;28.60;63.70;;;;;;5092659;28;20246;-80
2022/07/04 10:51:41;;;;;;;1.90;1.77;;;29.60;62.90;;;;;;5093096;28;20246;-81
2022/07/04 10:54:10;;;;;;;3.20;1.70;;;29.90;55.20;;;;;;5096545;28;20227;-81
2022/07/04 10:56:39;;;;;;;2.15;1.67;;;30.90;54.20;;;;;;5096501;28;20536;-81
2022/07/04 10:59:10;;;;;;;3.08;1.52;;;31.20;48.60;;;;;;5096714;28;20200;-81
2022/07/04 11:01:37;;;;;;;2.88;1.80;;;29.90;49.30;;;;;;5096670;28;20208;-81
2022/07/04 11:04:05;;;;;;;4.85;1.90;;;29.10;49.60;;;;;;5096298;28;20220;-81
2022/07/04 11:06:54;;;;;;;4.22;1.80;;;29.40;51.40;;;;;;5096178;28;20192;-82
2022/07/04 11:09:21;;;;;;;3.38;1.70;;;30.60;47.60;;;;;;5096429;28;20196;-82
2022/07/04 11:11:49;;;;;;;3.45;1.85;;;32.30;46.00;;;;;;5096265;28;20200;-82
2022/07/04 11:14:36;;;;;;;3.92;1.80;;;33.30;41.00;;;;;;5096157;28;20293;-82
2022/07/04 11:17:03;;;;;;;5.38;1.90;;;34.10;39.30;;;;;;5096101;28;20283;-82
2022/07/04 11:19:31;;;;;;;3.78;2.00;;;32.20;39.40;;;;;;5095703;28;20695;-81
2022/07/04 11:21:58;;;;;;;4.25;1.85;;;31.00;41.60;;;;;;5096031;28;20528;-81
2022/07/04 11:24:26;;;;;;;3.53;1.88;;;31.20;42.20;;;;;;5096042;28;20220;-81
2022/07/04 11:26:53;;;;;;;5.95;1.77;;;30.30;42.20;;;;;;5096062;28;20253;-81
2022/07/04 11:29:20;;;;;;;3.55;2.00;;;31.30;42.60;;;;;;5095953;28;20200;-82
2022/07/04 11:31:48;;;;;;;2.70;2.00;;;30.70;42.20;;;;;;5095822;28;20200;-81
2022/07/04 11:34:15;;;;;;;5.53;2.00;;;30.70;43.20;;;;;;5096185;28;20312;-82
2022/07/04 11:36:45;;;;;;;6.07;2.00;;;31.00;42.20;;;;;;5095970;28;20199;-82
2022/07/04 11:39:14;;;;;;;3.08;2.10;;;31.30;42.10;;;;;;5095935;28;20200;-82
2022/07/04 11:47:16;;;;;;;4.20;2.10;;;30.60;42.00;;;;;;5095774;28;20195;-81
2022/07/04 11:49:45;;;;;;;2.10;1.88;;;31.50;41.10;;;;;;5095595;28;20203;-82
2022/07/04 11:52:13;;;;;;;4.80;1.90;;;32.00;40.80;;;;;;5095630;28;20195;-81
2022/07/04 11:54:41;;;;;;;3.08;2.20;;;30.60;41.80;;;;;;5095579;28;20199;-81
2022/07/04 11:57:20;;;;;;;2.25;1.88;;;30.40;41.40;;;;;;5095674;28;20196;-81
2022/07/04 11:59:55;;;;;;;3.20;1.85;;;30.00;42.20;;;;;;5095508;28;20199;-82
2022/07/04 12:02:22;;;;;;;4.35;1.83;;;30.30;42.00;;;;;;5095163;28;20191;-82
2022/07/04 12:04:48;;;;;;;4.68;2.17;;;29.90;42.10;;;;;;5095172;28;20224;-80
2022/07/04 12:07:18;;;;;;;4.25;2.08;;;31.00;41.40;;;;;;5095135;28;20525;-82
2022/07/04 12:09:46;;;;;;;4.22;1.70;;;32.00;40.70;;;;;;5096591;28;20253;-81
2022/07/04 12:12:14;;;;;;;4.80;1.77;;;31.60;38.80;;;;;;5095229;28;20200;-82
2022/07/04 12:14:56;;;;;;;3.20;1.88;;;31.20;39.00;;;;;;5095310;28;20196;-82
2022/07/04 12:17:23;;;;;;;2.53;1.77;;;32.10;38.20;;;;;;5095263;28;20253;-83
2022/07/04 12:19:58;;;;;;;2.97;1.90;;;31.50;38.80;;;;;;5095321;28;20227;-83
2022/07/04 12:22:32;;;;;;;2.28;2.08;;;32.40;37.90;;;;;;5094951;28;20597;-82
2022/07/04 12:25:00;;;;;;;2.88;1.92;;;31.70;38.00;;;;;;5095859;28;20223;-83
2022/07/04 12:27:27;;;;;;;3.55;2.10;;;31.70;38.90;;;;;;5097575;28;20203;-82
2022/07/04 12:29:55;;;;;;;5.35;2.10;;;32.20;38.10;;;;;;5097774;28;20212;-83
2022/07/04 12:32:22;;;;;;;3.60;1.80;;;32.40;38.20;;;;;;5095858;28;20207;-83
2022/07/04 12:34:49;;;;;;;4.25;2.13;;;31.50;37.70;;;;;;5094884;28;20261;-82
2022/07/04 12:37:18;;;;;;;2.72;1.90;;;32.60;37.90;;;;;;5094757;28;20196;-82
2022/07/04 12:39:46;;;;;;;2.25;1.70;;;33.00;36.00;;;;;;5094605;28;20226;-82
2022/07/04 12:42:15;;;;;;;2.22;2.00;;;31.60;36.00;;;;;;5094390;28;20704;-82
2022/07/04 12:44:42;;;;;;;3.75;1.63;;;33.40;34.90;;;;;;5094514;28;20340;-81
2022/07/04 12:47:11;;;;;;;2.35;1.98;;;34.50;33.40;;;;;;5094540;28;20196;-82
2022/07/04 12:49:43;;;;;;;2.83;1.98;;;34.40;32.70;;;;;;5094280;28;20200;-82
2022/07/04 12:52:13;;;;;;;2.95;1.90;;;34.80;32.90;;;;;;5094323;28;20261;-82
2022/07/04 12:54:40;;;;;;;2.42;1.90;;;33.50;32.80;;;;;;5094139;28;20199;-82
2022/07/04 12:57:11;;;;;;;2.38;1.70;;;34.10;33.20;;;;;;5094148;28;20204;-82
2022/07/04 12:59:38;;;;;;;3.83;1.70;;;35.80;31.30;;;;;;5094284;28;20210;-81
2022/07/04 13:02:05;;;;;;;2.30;1.80;;;34.50;31.00;;;;;;5094153;28;20200;-82
2022/07/04 13:04:32;;;;;;;5.47;1.77;;;35.50;29.40;;;;;;5094044;28;20405;-82
2022/07/04 13:07:01;;;;;;;4.13;2.03;;;35.40;29.10;;;;;;5094117;28;20200;-82
2022/07/04 13:09:27;;;;;;;3.25;1.90;;;33.10;30.80;;;;;;5093716;28;20199;-81
2022/07/04 13:14:40;;;;;;;4.28;1.85;;;33.80;30.40;;;;;;5093275;28;20241;-81
2022/07/04 13:17:07;;;;;;;3.75;1.80;;;32.10;31.80;;;;;;5094053;28;20225;-83